Aérodrome :
LOGIN :

S'inscrire | Disclaimer

   EN    FR    IT 

 










Légende :    VFR   VFR Marginal   IFR   IFR Intensif   IFR Très Intensif
Visi : 
Plafond : 
>= 8 km
>= 3000ft
5 à 8 km
1000 à 3000 ft
1500m à 5 km
500 à 1000 ft
800 à 1500m
200 à 500 ft
< 800m
< 200 ft
Symboles :   Orages  Brouillard  Fortes neiges  Fortes précipitations  Vent > 20 kt
SIGMETs :   Divers  Orages  Givrage  Turbulence  Onde Orograph.  Cendres Volcan.






- Altitude de l'aérodrome : 359 ft
- Code IATA : BVA


LFOB - Beauvais

DERNIER METAR :
  • 101000Z AUTO 08003KT 050V120 9999 // ///TCU 24/18 Q1014

METARs EXPIRÉS :
  • 100930Z AUTO 05004KT 9999 // ///TCU 23/18 Q1014
  • 100900Z AUTO 09005KT 9999 // FEW037/// SCT082/// BKN110/// ///TCU 23/19 Q1014
  • 100830Z AUTO 03004KT 9999 // ///TCU 23/19 Q1014
  • 100800Z AUTO VRB03KT 9999 // FEW049/// SCT062/// BKN090/// ///TCU 24/17 Q1014
  • 100730Z AUTO 08005KT 060V120 9999 // FEW016/// SCT092/// BKN130/// ///TCU 24/17 Q1014

TAF TAF LFOB
Valide du 10 à 06h jusqu'au 11 à 06h UTC


100500Z 1006/1106 10007KT CAVOK
TEMPO 1006/1106 SCT100CB
PROB30
TEMPO 1006/1021 VRB25G35KT 3000 TSRA BKN070CB
ATIS : +33 3 44 11 49 28



MET'MAP, la Météo Aéronautique d'un coup d'oeil ! - Copyright ORBIFLY Décembre 2007 - Disclaimer

ORBIFLY MET'MAP TEAM :

Programmation & Développement : Alexandra Zaïnal
Sur une idée originale de : Baudouin d'Aumeries
Assistance à la programmation : Marc-Olivier Méhu
Soutien technique & logistique : Manuel Goepfert

Contact : metmap@orbifly.com




SOURCES & CREDITS :

   NOAA